createdAt,value
2018-07-20T00:00:39.792Z,59.10
2018-07-20T00:02:43.290Z,58.70
2018-07-20T00:04:46.951Z,58.30
2018-07-20T00:06:50.451Z,58.80
2018-07-20T00:08:53.923Z,60.90
2018-07-20T00:10:57.479Z,62.30
2018-07-20T00:13:00.987Z,61.60
2018-07-20T00:15:04.731Z,60.90
2018-07-20T00:17:08.252Z,60.60
2018-07-20T00:19:11.738Z,60.90
2018-07-20T00:21:15.281Z,61.00
2018-07-20T00:23:18.778Z,61.00
2018-07-20T00:25:22.292Z,61.10
2018-07-20T00:27:25.832Z,60.00
2018-07-20T00:29:29.366Z,59.10
2018-07-20T00:31:32.899Z,58.40
2018-07-20T00:33:36.456Z,58.40
2018-07-20T00:35:40.020Z,58.20
2018-07-20T00:37:43.612Z,58.20
2018-07-20T00:39:47.117Z,58.60
2018-07-20T00:41:50.608Z,59.60
2018-07-20T00:43:54.102Z,60.10
2018-07-20T00:45:57.629Z,60.90
2018-07-20T00:48:01.198Z,61.40
2018-07-20T00:50:05.312Z,61.80
2018-07-20T00:52:08.849Z,61.70
2018-07-20T00:54:12.502Z,61.30
2018-07-20T00:56:16.022Z,60.70
2018-07-20T00:58:19.544Z,60.50
2018-07-20T01:00:23.234Z,61.80
2018-07-20T01:02:26.940Z,62.70
2018-07-20T01:04:30.506Z,63.60
2018-07-20T01:06:34.058Z,64.40
2018-07-20T01:08:37.611Z,63.10
2018-07-20T01:10:41.138Z,62.80
2018-07-20T01:12:44.689Z,62.80
2018-07-20T01:14:48.186Z,62.30
2018-07-20T01:16:51.717Z,64.20
2018-07-20T01:18:55.206Z,64.90
2018-07-20T01:20:58.796Z,64.00
2018-07-20T01:23:02.261Z,63.80
2018-07-20T01:25:05.847Z,64.30
2018-07-20T01:27:09.405Z,63.90
2018-07-20T01:29:12.886Z,64.00
2018-07-20T01:31:16.409Z,63.20
2018-07-20T01:33:20.720Z,62.00
2018-07-20T01:35:24.237Z,61.40
2018-07-20T01:37:27.789Z,60.60
2018-07-20T01:39:31.285Z,59.70
2018-07-20T01:41:34.827Z,59.10
2018-07-20T01:43:38.347Z,58.90
2018-07-20T01:45:41.898Z,59.30
2018-07-20T01:47:45.536Z,59.10
2018-07-20T01:49:49.060Z,60.20
2018-07-20T01:51:52.659Z,60.40
2018-07-20T01:53:56.163Z,60.90
2018-07-20T01:55:59.688Z,61.60
2018-07-20T01:58:03.192Z,63.10
2018-07-20T02:02:10.180Z,63.60
2018-07-20T02:06:16.952Z,63.30
2018-07-20T02:08:20.497Z,62.60
2018-07-20T02:10:24.007Z,62.30
2018-07-20T02:12:27.495Z,62.70
2018-07-20T02:14:31.042Z,62.60
2018-07-20T02:16:34.723Z,61.90
2018-07-20T02:18:38.241Z,61.50
2018-07-20T02:20:41.815Z,62.10
2018-07-20T02:22:45.338Z,61.50
2018-07-20T02:24:48.863Z,61.50
2018-07-20T02:26:52.381Z,61.70
2018-07-20T02:28:55.859Z,61.60
2018-07-20T02:30:59.420Z,61.70
2018-07-20T02:33:02.998Z,62.10
2018-07-20T02:35:06.803Z,62.50
2018-07-20T02:37:10.343Z,63.10
2018-07-20T02:39:13.928Z,64.00
2018-07-20T02:41:17.417Z,64.30
2018-07-20T02:43:20.975Z,63.90
2018-07-20T02:45:24.514Z,65.60
2018-07-20T02:47:28.031Z,65.40
2018-07-20T02:49:31.540Z,66.10
2018-07-20T02:51:35.083Z,65.90
2018-07-20T02:53:38.618Z,65.90
2018-07-20T02:55:42.237Z,65.80
2018-07-20T02:57:45.772Z,66.70
2018-07-20T02:59:49.274Z,65.30
2018-07-20T03:03:56.051Z,64.40
2018-07-20T03:05:59.540Z,64.60
2018-07-20T03:08:03.120Z,65.10
2018-07-20T03:10:06.649Z,66.90
2018-07-20T03:12:10.177Z,67.50
2018-07-20T03:14:13.688Z,66.70
2018-07-20T03:16:17.287Z,67.20
2018-07-20T03:18:20.888Z,68.70
2018-07-20T03:20:24.430Z,69.00
2018-07-20T03:22:27.900Z,68.10
2018-07-20T03:24:31.402Z,67.30
2018-07-20T03:26:34.918Z,67.70
2018-07-20T03:28:38.458Z,67.70
2018-07-20T03:30:41.968Z,67.00
2018-07-20T03:32:45.513Z,66.20
2018-07-20T03:34:49.015Z,65.00
2018-07-20T03:36:52.633Z,63.80
2018-07-20T03:38:56.114Z,62.60
2018-07-20T03:40:59.684Z,62.10
2018-07-20T03:43:03.220Z,61.20
2018-07-20T03:45:06.855Z,60.10
2018-07-20T03:47:10.774Z,60.10
2018-07-20T03:49:14.270Z,60.70
2018-07-20T03:51:17.770Z,60.70
2018-07-20T03:53:21.269Z,61.60
2018-07-20T03:59:31.191Z,65.30
2018-07-20T04:01:34.638Z,66.60
2018-07-20T04:03:38.120Z,66.50
2018-07-20T04:05:41.826Z,68.00
2018-07-20T04:07:45.342Z,68.00
2018-07-20T04:09:48.862Z,68.30
2018-07-20T04:11:52.359Z,66.30
2018-07-20T04:13:55.839Z,65.20
2018-07-20T04:15:59.404Z,65.20
2018-07-20T04:18:02.959Z,65.30
2018-07-20T04:20:06.970Z,66.40
2018-07-20T04:22:10.449Z,67.90
2018-07-20T04:24:14.046Z,69.50
2018-07-20T04:26:17.538Z,70.20
2018-07-20T04:28:21.151Z,71.30
2018-07-20T04:30:24.687Z,71.60
2018-07-20T04:32:28.153Z,72.40
2018-07-20T04:34:31.656Z,71.30
2018-07-20T04:36:35.180Z,71.10
2018-07-20T04:38:38.701Z,70.30
2018-07-20T04:40:42.381Z,70.20
2018-07-20T04:44:49.035Z,67.80
2018-07-20T04:46:52.573Z,67.80
2018-07-20T04:48:56.151Z,67.90
2018-07-20T04:50:59.619Z,67.10
2018-07-20T04:53:03.123Z,67.20
2018-07-20T04:55:06.670Z,67.80
2018-07-20T04:57:11.010Z,67.60
2018-07-20T04:59:14.592Z,68.40
2018-07-20T05:01:18.222Z,68.20
2018-07-20T05:03:21.797Z,68.00
2018-07-20T05:05:25.315Z,67.60
2018-07-20T05:07:28.912Z,67.80
2018-07-20T05:09:32.407Z,67.10
2018-07-20T05:11:36.167Z,66.60
2018-07-20T05:13:39.650Z,65.70
2018-07-20T05:15:43.195Z,65.20
2018-07-20T05:17:46.713Z,64.50
2018-07-20T05:19:50.262Z,64.30
2018-07-20T05:21:53.738Z,64.10
2018-07-20T05:23:57.298Z,63.80
2018-07-20T05:26:00.884Z,63.20
2018-07-20T05:28:04.402Z,63.30
2018-07-20T05:30:07.950Z,63.50
2018-07-20T05:32:11.603Z,63.20
2018-07-20T05:34:15.100Z,63.60
2018-07-20T05:36:18.619Z,64.30
2018-07-20T05:38:22.101Z,64.50
2018-07-20T05:40:25.627Z,64.40
2018-07-20T05:42:29.142Z,64.00
2018-07-20T05:44:32.643Z,63.70
2018-07-20T05:46:36.560Z,63.50
2018-07-20T05:48:40.028Z,63.80
2018-07-20T05:50:43.531Z,63.60
2018-07-20T05:52:47.088Z,63.60
2018-07-20T05:54:50.718Z,63.20
2018-07-20T05:56:54.219Z,62.60
2018-07-20T05:58:57.785Z,62.50
2018-07-20T06:01:01.276Z,63.30
2018-07-20T06:03:04.854Z,62.60
2018-07-20T06:05:08.485Z,61.80
2018-07-20T06:07:11.996Z,61.20
2018-07-20T06:09:15.491Z,61.20
2018-07-20T06:11:19.019Z,60.80
2018-07-20T06:13:22.603Z,60.50
2018-07-20T06:15:26.099Z,60.30
2018-07-20T06:17:29.632Z,60.70
2018-07-20T06:19:33.431Z,60.40
2018-07-20T06:21:36.958Z,60.20
2018-07-20T06:23:40.521Z,60.80
2018-07-20T06:25:44.012Z,60.20
2018-07-20T06:27:47.555Z,59.70
2018-07-20T06:29:51.055Z,58.70
2018-07-20T06:31:54.703Z,58.40
2018-07-20T06:33:58.265Z,57.90
2018-07-20T06:36:01.776Z,58.20
2018-07-20T06:38:05.356Z,58.20
2018-07-20T06:40:08.876Z,57.30
2018-07-20T06:42:12.370Z,56.80
2018-07-20T06:44:15.884Z,57.30
2018-07-20T06:46:19.612Z,58.30
2018-07-20T06:48:23.119Z,58.00
2018-07-20T06:50:26.673Z,56.00
2018-07-20T06:52:30.263Z,55.60
2018-07-20T06:54:33.761Z,55.80
2018-07-20T06:56:37.260Z,54.00
2018-07-20T06:58:40.742Z,54.20
2018-07-20T07:00:44.229Z,53.80
2018-07-20T07:02:47.718Z,53.10
2018-07-20T07:04:51.172Z,52.40
2018-07-20T07:06:54.683Z,52.80
2018-07-20T07:08:58.435Z,52.70
2018-07-20T07:11:02.049Z,53.50
2018-07-20T07:13:05.606Z,53.60
2018-07-20T07:15:09.270Z,53.10
2018-07-20T07:17:12.799Z,52.50
2018-07-20T07:19:16.385Z,51.20
2018-07-20T07:21:19.889Z,50.20
2018-07-20T07:23:23.452Z,49.30
2018-07-20T07:25:26.966Z,49.50
2018-07-20T07:27:30.542Z,48.00
2018-07-20T07:29:34.022Z,49.00
2018-07-20T07:31:37.608Z,49.80
2018-07-20T07:33:41.084Z,50.00
2018-07-20T07:35:44.714Z,49.40
2018-07-20T07:37:48.196Z,49.40
2018-07-20T07:41:54.875Z,48.00
2018-07-20T07:43:58.451Z,48.00
2018-07-20T07:46:01.959Z,48.00
2018-07-20T07:48:05.498Z,48.20
2018-07-20T07:50:09.036Z,48.60
2018-07-20T07:52:12.656Z,48.00
2018-07-20T07:54:16.165Z,47.80
2018-07-20T07:58:22.887Z,48.00
2018-07-20T08:00:26.402Z,46.70
2018-07-20T08:02:29.999Z,47.80
2018-07-20T08:04:33.606Z,48.00
2018-07-20T08:06:37.386Z,48.20
2018-07-20T08:08:40.910Z,47.10
2018-07-20T08:10:44.460Z,47.70
2018-07-20T08:12:48.022Z,48.00
2018-07-20T08:14:51.491Z,47.90
2018-07-20T08:16:55.112Z,47.70
2018-07-20T08:18:58.645Z,47.20
2018-07-20T08:21:02.108Z,46.40
2018-07-20T08:25:08.853Z,48.00
2018-07-20T08:27:12.426Z,48.40
2018-07-20T08:29:15.986Z,48.40
2018-07-20T08:31:19.630Z,48.10
2018-07-20T08:33:23.248Z,49.00
2018-07-20T08:35:26.852Z,49.20
2018-07-20T08:37:30.372Z,50.20
2018-07-20T08:39:33.902Z,49.10
2018-07-20T08:41:37.685Z,50.00
2018-07-20T08:43:41.150Z,50.00
2018-07-20T08:45:44.652Z,49.10
2018-07-20T08:47:48.210Z,47.60
2018-07-20T08:49:51.688Z,48.70
2018-07-20T08:51:55.394Z,48.40
2018-07-20T08:53:58.836Z,47.10
2018-07-20T08:56:02.318Z,46.40
2018-07-20T08:58:06.118Z,46.80
2018-07-20T09:00:09.713Z,45.90
2018-07-20T09:02:13.270Z,45.80
2018-07-20T09:04:16.842Z,45.10
2018-07-20T09:08:23.562Z,46.00
2018-07-20T09:10:27.069Z,44.70
2018-07-20T09:12:30.626Z,44.20
2018-07-20T09:14:34.282Z,44.30
2018-07-20T09:16:37.790Z,44.60
2018-07-20T09:18:41.405Z,44.00
2018-07-20T09:22:48.113Z,44.10
2018-07-20T09:24:51.587Z,44.00
2018-07-20T09:28:58.314Z,43.40
2018-07-20T09:31:01.823Z,44.10
2018-07-20T09:33:05.442Z,44.60
2018-07-20T09:35:09.199Z,44.30
2018-07-20T09:37:12.871Z,43.20
2018-07-20T09:39:16.366Z,43.50
2018-07-20T09:41:19.870Z,44.00
2018-07-20T09:43:23.455Z,44.40
2018-07-20T09:45:26.993Z,43.90
2018-07-20T09:47:30.465Z,43.50
2018-07-20T09:49:33.986Z,44.50
2018-07-20T09:51:37.481Z,43.10
2018-07-20T09:53:41.071Z,44.50
2018-07-20T09:55:44.596Z,44.00
2018-07-20T09:57:48.119Z,43.00
2018-07-20T09:59:51.686Z,43.50
2018-07-20T10:01:55.150Z,43.80
2018-07-20T10:03:58.689Z,43.60
2018-07-20T10:06:02.304Z,43.20
2018-07-20T10:08:06.122Z,43.50
2018-07-20T10:10:09.620Z,44.10
2018-07-20T10:12:13.123Z,44.10
2018-07-20T10:14:16.811Z,43.30
2018-07-20T10:16:20.308Z,42.50
2018-07-20T10:18:23.810Z,43.30
2018-07-20T10:20:27.322Z,43.80
2018-07-20T10:22:30.859Z,43.90
2018-07-20T10:24:34.360Z,43.30
2018-07-20T10:26:37.902Z,43.30
2018-07-20T10:28:41.442Z,43.50
2018-07-20T10:30:45.080Z,42.40
2018-07-20T10:32:48.623Z,43.30
2018-07-20T10:34:52.136Z,43.40
2018-07-20T10:36:55.632Z,43.30
2018-07-20T10:38:59.242Z,42.50
2018-07-20T10:41:02.843Z,42.70
2018-07-20T10:43:06.592Z,42.20
2018-07-20T10:45:10.337Z,42.00
2018-07-20T10:47:13.800Z,43.00
2018-07-20T10:49:17.285Z,43.90
2018-07-20T10:51:20.808Z,42.90
2018-07-20T10:53:24.342Z,43.60
2018-07-20T10:55:27.856Z,44.20
2018-07-20T10:57:31.395Z,45.20
2018-07-20T10:59:34.923Z,44.30
2018-07-20T11:01:38.558Z,43.40
2018-07-20T11:05:45.314Z,44.90
2018-07-20T11:07:48.795Z,43.90
2018-07-20T11:09:52.322Z,42.40
2018-07-20T11:11:55.816Z,42.70
2018-07-20T11:13:59.275Z,41.40
2018-07-20T11:18:06.038Z,43.20
2018-07-20T11:20:09.655Z,43.70
2018-07-20T11:22:13.189Z,42.80
2018-07-20T11:24:16.707Z,42.30
2018-07-20T11:26:20.295Z,42.80
2018-07-20T11:28:23.794Z,44.30
2018-07-20T11:30:27.322Z,42.30
2018-07-20T11:32:30.820Z,42.80
2018-07-20T11:34:34.452Z,41.80
2018-07-20T11:36:38.136Z,42.10
2018-07-20T11:38:41.623Z,41.20
2018-07-20T11:40:45.231Z,41.70
2018-07-20T11:42:48.719Z,40.60
2018-07-20T11:44:52.211Z,40.00
2018-07-20T11:46:55.823Z,41.70
2018-07-20T11:48:59.347Z,41.40
2018-07-20T11:51:02.865Z,41.70
2018-07-20T11:53:06.583Z,42.50
2018-07-20T11:55:10.144Z,42.00
2018-07-20T11:57:13.617Z,41.90
2018-07-20T11:59:17.236Z,42.30
2018-07-20T12:01:20.803Z,42.20
2018-07-20T12:03:24.258Z,43.40
2018-07-20T12:05:27.774Z,43.50
2018-07-20T12:07:31.246Z,47.40
2018-07-20T12:09:34.811Z,48.20
2018-07-20T12:11:38.389Z,47.50
2018-07-20T12:13:41.918Z,49.60
2018-07-20T12:15:45.545Z,50.40
2018-07-20T12:17:49.010Z,51.30
2018-07-20T12:19:52.515Z,51.80
2018-07-20T12:21:56.027Z,52.20
2018-07-20T12:23:59.774Z,52.30
2018-07-20T12:26:03.320Z,53.20
2018-07-20T12:28:06.797Z,53.10
2018-07-20T12:30:10.288Z,53.30
2018-07-20T12:32:13.795Z,52.60
2018-07-20T12:34:17.329Z,52.20
2018-07-20T12:36:20.833Z,53.60
2018-07-20T12:38:24.419Z,53.80
2018-07-20T12:40:27.911Z,54.10
2018-07-20T12:42:31.539Z,53.70
2018-07-20T12:44:35.055Z,52.70
2018-07-20T12:46:38.731Z,50.80
2018-07-20T12:48:42.256Z,51.90
2018-07-20T12:50:45.954Z,51.10
2018-07-20T12:52:49.470Z,50.50
2018-07-20T12:54:53.074Z,50.90
2018-07-20T12:56:56.569Z,50.00
2018-07-20T12:59:00.204Z,50.10
2018-07-20T13:01:03.686Z,49.60
2018-07-20T13:03:08.215Z,52.30
2018-07-20T13:05:11.745Z,50.00
2018-07-20T13:07:15.234Z,47.10
2018-07-20T13:09:18.745Z,47.90
2018-07-20T13:11:22.316Z,46.70
2018-07-20T13:13:25.873Z,46.20
2018-07-20T13:15:29.379Z,46.10
2018-07-20T13:17:32.852Z,46.60
2018-07-20T13:19:36.410Z,46.40
2018-07-20T13:21:39.955Z,46.90
2018-07-20T13:23:43.524Z,46.80
2018-07-20T13:25:47.115Z,48.70
2018-07-20T13:27:50.607Z,48.60
2018-07-20T13:29:54.148Z,48.00
2018-07-20T13:31:57.676Z,49.50
2018-07-20T13:34:01.272Z,48.60
2018-07-20T13:36:05.258Z,49.20
2018-07-20T13:38:08.958Z,46.90
2018-07-20T13:40:12.476Z,46.30
2018-07-20T13:42:15.995Z,44.00
2018-07-20T13:44:19.552Z,45.10
2018-07-20T13:46:23.170Z,44.00
2018-07-20T13:48:26.676Z,45.30
2018-07-20T13:50:30.208Z,45.20
2018-07-20T13:52:33.775Z,44.30
2018-07-20T13:56:40.546Z,44.20
2018-07-20T13:58:44.045Z,45.70
2018-07-20T14:00:47.623Z,45.60
2018-07-20T14:02:51.188Z,43.00
2018-07-20T14:04:54.738Z,43.50
2018-07-20T14:06:58.254Z,44.40
2018-07-20T14:09:01.739Z,44.40
2018-07-20T14:11:05.263Z,45.10
2018-07-20T14:13:08.804Z,45.10
2018-07-20T14:15:12.454Z,44.60
2018-07-20T14:17:16.028Z,44.10
2018-07-20T14:19:19.492Z,44.40
2018-07-20T14:21:23.124Z,44.00
2018-07-20T14:23:26.719Z,45.20
2018-07-20T14:25:30.299Z,44.70
2018-07-20T14:27:33.871Z,43.90
2018-07-20T14:31:40.777Z,43.50
2018-07-20T14:33:44.518Z,43.70
2018-07-20T14:35:48.044Z,44.70
2018-07-20T14:37:51.607Z,44.30
2018-07-20T14:39:55.124Z,45.10
2018-07-20T14:41:58.648Z,44.70
2018-07-20T14:44:02.156Z,45.30
2018-07-20T14:46:05.818Z,44.30
2018-07-20T14:48:09.293Z,45.20
2018-07-20T14:50:12.880Z,45.10
2018-07-20T14:52:16.419Z,45.30
2018-07-20T14:54:20.051Z,44.80
2018-07-20T14:56:23.607Z,43.70
2018-07-20T14:58:27.130Z,44.70
2018-07-20T15:00:30.643Z,44.10
2018-07-20T15:02:34.193Z,44.40
2018-07-20T15:04:37.696Z,43.40
2018-07-20T15:06:41.166Z,44.30
2018-07-20T15:08:44.715Z,43.90
2018-07-20T15:10:48.259Z,43.70
2018-07-20T15:12:52.047Z,44.40
2018-07-20T15:14:55.619Z,41.40
2018-07-20T15:16:59.130Z,43.00
2018-07-20T15:19:02.627Z,43.20
2018-07-20T15:21:06.331Z,42.00
2018-07-20T15:23:09.828Z,40.90
2018-07-20T15:25:13.356Z,41.60
2018-07-20T15:27:16.894Z,41.40
2018-07-20T15:29:20.395Z,39.10
2018-07-20T15:31:23.982Z,39.80
2018-07-20T15:33:27.573Z,42.30
2018-07-20T15:35:31.087Z,42.60
2018-07-20T15:37:34.654Z,42.70
2018-07-20T15:39:38.136Z,42.40
2018-07-20T15:41:41.685Z,40.80
2018-07-20T15:43:45.200Z,41.40
2018-07-20T15:45:52.100Z,41.70
2018-07-20T15:47:52.222Z,41.10
2018-07-20T15:49:55.724Z,42.30
2018-07-20T15:54:02.872Z,41.40
2018-07-20T15:56:06.397Z,41.40
2018-07-20T15:58:09.891Z,41.60
2018-07-20T16:00:13.545Z,42.00
2018-07-20T16:02:17.064Z,41.80
2018-07-20T16:04:20.635Z,42.80
2018-07-20T16:06:24.122Z,41.90
2018-07-20T16:08:27.647Z,42.50
2018-07-20T16:10:31.163Z,43.10
2018-07-20T16:12:34.682Z,43.20
2018-07-20T16:14:38.200Z,43.60
2018-07-20T16:16:41.729Z,44.80
2018-07-20T16:18:45.233Z,45.10
2018-07-20T16:20:48.848Z,44.80
2018-07-20T16:22:52.365Z,44.00
2018-07-20T16:24:55.889Z,43.90
2018-07-20T16:26:59.406Z,44.70
2018-07-20T16:29:02.944Z,44.50
2018-07-20T16:31:06.539Z,44.70
2018-07-20T16:33:10.089Z,45.30
2018-07-20T16:35:13.599Z,45.40
2018-07-20T16:37:17.158Z,46.90
2018-07-20T16:39:20.626Z,46.80
2018-07-20T16:41:24.125Z,47.20
2018-07-20T16:43:27.666Z,47.10
2018-07-20T16:45:31.221Z,47.40
2018-07-20T16:47:34.787Z,46.40
2018-07-20T16:49:38.284Z,47.10
2018-07-20T16:51:41.818Z,46.30
2018-07-20T16:53:45.322Z,46.90
2018-07-20T16:55:48.809Z,46.20
2018-07-20T16:57:52.336Z,46.50
2018-07-20T16:59:55.810Z,46.70
2018-07-20T17:01:59.319Z,47.20
2018-07-20T17:04:02.812Z,47.70
2018-07-20T17:06:06.365Z,47.70
2018-07-20T17:08:09.846Z,47.50
2018-07-20T17:10:13.408Z,48.00
2018-07-20T17:12:16.945Z,48.30
2018-07-20T17:14:20.493Z,48.40
2018-07-20T17:16:24.095Z,48.90
2018-07-20T17:18:27.610Z,50.70
2018-07-20T17:20:31.100Z,52.20
2018-07-20T17:22:34.630Z,53.40
2018-07-20T17:24:38.102Z,54.20
2018-07-20T17:26:41.701Z,54.50
2018-07-20T17:28:45.252Z,54.40
2018-07-20T17:32:51.921Z,55.60
2018-07-20T17:34:55.494Z,55.40
2018-07-20T17:36:59.258Z,55.70
2018-07-20T17:39:02.875Z,56.80
2018-07-20T17:41:06.703Z,57.50
2018-07-20T17:43:10.254Z,57.30
2018-07-20T17:45:13.811Z,58.40
2018-07-20T17:47:17.367Z,59.00
2018-07-20T17:49:21.169Z,59.30
2018-07-20T17:51:24.669Z,61.00
2018-07-20T17:53:28.271Z,61.00
2018-07-20T17:55:32.007Z,62.00
2018-07-20T17:57:35.547Z,60.60
2018-07-20T17:59:39.094Z,61.90
2018-07-20T18:01:42.647Z,62.80
2018-07-20T18:03:46.209Z,62.60
2018-07-20T18:05:49.712Z,62.60
2018-07-20T18:07:53.251Z,62.30
2018-07-20T18:09:56.787Z,63.10
2018-07-20T18:12:00.315Z,64.00
2018-07-20T18:14:03.927Z,64.80
2018-07-20T18:16:07.541Z,65.90
2018-07-20T18:18:11.182Z,66.70
2018-07-20T18:22:17.847Z,67.10
2018-07-20T18:24:21.879Z,67.70
2018-07-20T18:26:25.415Z,67.50
2018-07-20T18:28:28.948Z,67.30
2018-07-20T18:30:32.607Z,65.70
2018-07-20T18:32:36.093Z,65.90
2018-07-20T18:34:39.619Z,66.00
2018-07-20T18:36:43.311Z,65.90
2018-07-20T18:38:46.950Z,66.50
2018-07-20T18:40:50.452Z,67.30
2018-07-20T18:42:56.303Z,67.00
2018-07-20T18:44:59.926Z,66.30
2018-07-20T18:47:03.601Z,66.40
2018-07-20T18:49:07.118Z,67.10
2018-07-20T18:51:10.695Z,66.70
2018-07-20T18:53:14.278Z,67.30
2018-07-20T18:55:17.848Z,67.30
2018-07-20T18:57:21.351Z,66.40
2018-07-20T18:59:24.892Z,66.50
2018-07-20T19:01:28.413Z,65.80
2018-07-20T19:03:31.960Z,65.30
2018-07-20T19:05:35.463Z,64.30
2018-07-20T19:07:39.019Z,63.80
2018-07-20T19:09:42.527Z,63.00
2018-07-20T19:11:46.028Z,62.60
2018-07-20T19:13:49.676Z,61.70
2018-07-20T19:15:53.331Z,61.50
2018-07-20T19:20:00.000Z,60.80
2018-07-20T19:22:03.466Z,60.20
2018-07-20T19:24:07.122Z,61.10
2018-07-20T19:28:20.729Z,61.00
2018-07-20T19:30:24.325Z,62.40
2018-07-20T19:32:27.866Z,66.10
2018-07-20T19:34:31.423Z,65.50
2018-07-20T19:36:34.978Z,64.80
2018-07-20T19:38:38.447Z,64.80
2018-07-20T19:40:42.100Z,64.60
2018-07-20T19:42:45.610Z,64.70
2018-07-20T19:44:49.104Z,64.60
2018-07-20T19:46:52.673Z,64.20
2018-07-20T19:48:56.223Z,64.10
2018-07-20T19:53:02.996Z,64.60
2018-07-20T19:55:07.170Z,64.20
2018-07-20T19:57:10.762Z,64.80
2018-07-20T19:59:14.331Z,66.90
2018-07-20T20:01:17.902Z,68.80
2018-07-20T20:03:21.446Z,70.00
2018-07-20T20:05:25.043Z,70.70
2018-07-20T20:07:28.594Z,70.90
2018-07-20T20:09:32.115Z,71.40
2018-07-20T20:11:35.659Z,72.70
2018-07-20T20:13:39.303Z,71.70
2018-07-20T20:17:46.390Z,70.50
2018-07-20T20:19:49.939Z,69.70
2018-07-20T20:21:53.450Z,68.80
2018-07-20T20:23:57.123Z,69.30
2018-07-20T20:26:00.619Z,68.90
2018-07-20T20:28:07.002Z,71.00
2018-07-20T20:30:10.638Z,73.10
2018-07-20T20:34:17.340Z,70.90
2018-07-20T20:36:20.985Z,71.80
2018-07-20T20:38:24.568Z,75.20
2018-07-20T20:40:28.091Z,76.30
2018-07-20T20:42:31.581Z,74.10
2018-07-20T20:44:35.105Z,72.80
2018-07-20T20:46:39.191Z,72.40
2018-07-20T20:48:42.695Z,72.10
2018-07-20T20:50:46.239Z,71.60
2018-07-20T20:52:49.732Z,70.90
2018-07-20T20:54:53.292Z,69.80
2018-07-20T20:56:56.886Z,69.20
2018-07-20T20:59:00.506Z,68.30
2018-07-20T21:01:04.040Z,68.30
2018-07-20T21:03:07.541Z,68.40
2018-07-20T21:05:11.096Z,66.70
2018-07-20T21:07:14.611Z,66.20
2018-07-20T21:09:18.166Z,67.20
2018-07-20T21:11:21.715Z,67.30
2018-07-20T21:13:25.324Z,67.50
2018-07-20T21:15:28.847Z,67.30
2018-07-20T21:17:32.475Z,67.70
2018-07-20T21:19:36.034Z,67.30
2018-07-20T21:21:39.530Z,67.40
2018-07-20T21:23:43.039Z,67.70
2018-07-20T21:25:46.619Z,67.30
2018-07-20T21:27:50.243Z,68.00
2018-07-20T21:29:53.802Z,68.50
2018-07-20T21:31:57.386Z,68.80
2018-07-20T21:34:00.935Z,68.40
2018-07-20T21:36:04.446Z,67.80
2018-07-20T21:38:08.060Z,67.30
2018-07-20T21:40:11.600Z,66.20
2018-07-20T21:42:15.126Z,66.70
2018-07-20T21:44:18.606Z,67.40
2018-07-20T21:46:22.196Z,67.10
2018-07-20T21:48:25.671Z,66.60
2018-07-20T21:50:29.447Z,66.90
2018-07-20T21:52:32.935Z,66.90
2018-07-20T21:54:36.457Z,66.90
2018-07-20T21:56:39.954Z,67.30
2018-07-20T21:58:43.547Z,67.00
2018-07-20T22:00:47.290Z,67.30
2018-07-20T22:02:50.799Z,67.10
2018-07-20T22:04:54.379Z,67.50
2018-07-20T22:09:01.204Z,67.90
2018-07-20T22:11:04.819Z,67.50
2018-07-20T22:13:08.435Z,67.10
2018-07-20T22:15:11.986Z,66.80
2018-07-20T22:17:15.502Z,66.90
2018-07-20T22:19:19.044Z,67.60
2018-07-20T22:21:22.663Z,67.20
2018-07-20T22:23:26.214Z,67.10
2018-07-20T22:25:29.739Z,67.30
2018-07-20T22:27:33.219Z,68.40
2018-07-20T22:29:36.734Z,68.70
2018-07-20T22:31:40.280Z,68.70
2018-07-20T22:33:43.836Z,67.80
2018-07-20T22:35:47.331Z,67.60
2018-07-20T22:37:50.963Z,67.70
2018-07-20T22:39:54.469Z,67.60
2018-07-20T22:41:58.009Z,67.80
2018-07-20T22:44:01.554Z,68.10
2018-07-20T22:46:05.429Z,67.90
2018-07-20T22:48:08.951Z,67.90
2018-07-20T22:50:12.471Z,67.40
2018-07-20T22:52:15.983Z,66.90
2018-07-20T22:54:19.484Z,67.50
2018-07-20T22:56:23.036Z,68.00
2018-07-20T22:58:26.627Z,68.50
2018-07-20T23:00:30.189Z,68.70
2018-07-20T23:02:33.694Z,68.80
2018-07-20T23:04:37.372Z,68.70
2018-07-20T23:06:40.889Z,69.10
2018-07-20T23:10:47.896Z,68.80
2018-07-20T23:12:51.492Z,68.10
2018-07-20T23:14:54.983Z,68.80
2018-07-20T23:16:58.546Z,68.90
2018-07-20T23:19:02.044Z,69.10
2018-07-20T23:21:05.664Z,69.10
2018-07-20T23:23:09.091Z,69.00
2018-07-20T23:25:12.570Z,69.50
2018-07-20T23:27:16.092Z,69.70
2018-07-20T23:29:19.660Z,70.00
2018-07-20T23:31:23.143Z,69.20
2018-07-20T23:33:26.642Z,69.80
2018-07-20T23:35:30.292Z,69.90
2018-07-20T23:37:33.862Z,69.80
2018-07-20T23:39:37.376Z,69.00
2018-07-20T23:41:40.967Z,68.50
2018-07-20T23:43:44.448Z,69.20
2018-07-20T23:45:47.943Z,70.10
2018-07-20T23:47:51.458Z,70.30
2018-07-20T23:49:55.060Z,69.50
2018-07-20T23:51:58.563Z,69.70
2018-07-20T23:54:02.093Z,69.70
2018-07-20T23:56:06.110Z,69.60
2018-07-20T23:58:09.602Z,69.40
